Time;durP1;ratioP1;P1;durP2;ratioP2;P2;SDS_P1;SDS_P2;PMS_P1;PMS_P2;Temp;Humidity;BMP_temperature;BMP_pressure;BME280_temperature;BME280_humidity;BME280_pressure;Samples;Min_cycle;Max_cycle;Signal;HPM_P1;HPM_P2
2021/10/19 00:00:42;;;;;;;31.23;23.38;;;11.50;99.90;;;;;;4994278;28;20133;-76
2021/10/19 00:03:09;;;;;;;32.60;22.75;;;11.50;99.90;;;;;;4994180;28;20134;-77
2021/10/19 00:05:36;;;;;;;32.83;23.42;;;11.50;99.90;;;;;;4993912;28;20060;-77
2021/10/19 00:08:04;;;;;;;32.15;22.63;;;11.50;99.90;;;;;;4994418;28;20082;-77
2021/10/19 00:10:31;;;;;;;32.88;24.08;;;11.50;99.90;;;;;;4993827;28;20086;-77
2021/10/19 00:12:59;;;;;;;34.58;24.50;;;11.50;99.90;;;;;;4994356;28;20053;-77
2021/10/19 00:15:26;;;;;;;32.63;23.58;;;11.50;99.90;;;;;;4994298;28;20509;-77
2021/10/19 00:17:53;;;;;;;32.92;22.90;;;11.60;99.90;;;;;;4994197;28;20480;-77
2021/10/19 00:20:20;;;;;;;30.27;23.67;;;11.60;99.90;;;;;;4995479;28;20105;-78
2021/10/19 00:22:47;;;;;;;33.03;23.27;;;11.60;99.90;;;;;;4999338;28;20061;-77
2021/10/19 00:25:17;;;;;;;30.70;22.63;;;11.60;99.90;;;;;;4993803;28;20129;-76
2021/10/19 00:27:44;;;;;;;36.88;23.05;;;11.60;99.90;;;;;;4993923;28;20524;-76
2021/10/19 00:30:13;;;;;;;29.15;21.85;;;11.60;99.90;;;;;;4993402;28;20057;-77
2021/10/19 00:32:41;;;;;;;28.00;21.58;;;11.60;99.90;;;;;;4993606;28;20166;-76
2021/10/19 00:35:09;;;;;;;29.65;21.52;;;11.70;99.90;;;;;;4992988;28;20046;-76
2021/10/19 00:37:36;;;;;;;29.58;21.60;;;11.70;99.90;;;;;;4993664;28;20054;-77
2021/10/19 00:40:04;;;;;;;29.10;21.10;;;11.70;99.90;;;;;;4993336;28;20056;-76
2021/10/19 00:42:34;;;;;;;29.15;21.75;;;11.80;99.90;;;;;;4993381;28;20133;-76
2021/10/19 00:45:01;;;;;;;28.05;20.92;;;11.80;99.90;;;;;;4993133;28;20054;-76
2021/10/19 00:47:29;;;;;;;27.30;20.13;;;11.80;99.90;;;;;;4993675;28;20082;-76
2021/10/19 00:49:56;;;;;;;32.70;22.23;;;11.80;99.90;;;;;;4993897;28;20046;-78
2021/10/19 00:52:23;;;;;;;28.02;21.40;;;11.80;99.90;;;;;;4993859;28;20137;-77
2021/10/19 00:54:50;;;;;;;26.30;20.27;;;11.80;99.90;;;;;;4993934;28;20065;-76
2021/10/19 00:57:17;;;;;;;25.30;18.05;;;11.80;99.90;;;;;;4994648;28;20563;-77
2021/10/19 00:59:47;;;;;;;24.35;20.05;;;11.80;99.90;;;;;;4995609;28;20418;-77
2021/10/19 01:02:15;;;;;;;26.58;20.08;;;11.80;99.90;;;;;;4996907;28;20137;-77
2021/10/19 01:04:44;;;;;;;26.05;19.30;;;11.90;99.90;;;;;;4997725;28;20050;-77
2021/10/19 01:07:12;;;;;;;26.50;19.83;;;11.90;99.90;;;;;;5004463;28;20110;-76
2021/10/19 01:09:39;;;;;;;26.80;20.35;;;11.90;99.90;;;;;;5005425;28;20053;-76
2021/10/19 01:12:08;;;;;;;26.05;20.00;;;11.90;99.90;;;;;;5002533;28;20082;-77
2021/10/19 01:14:35;;;;;;;25.83;19.83;;;11.90;99.90;;;;;;4999946;28;20129;-77
2021/10/19 01:17:02;;;;;;;29.35;19.35;;;11.90;99.90;;;;;;4996964;28;20086;-77
2021/10/19 01:19:29;;;;;;;26.45;19.40;;;11.90;99.90;;;;;;4999507;28;20086;-77
2021/10/19 01:22:00;;;;;;;24.02;19.10;;;11.90;99.90;;;;;;4994121;28;20133;-77
2021/10/19 01:24:27;;;;;;;25.02;18.98;;;12.00;99.90;;;;;;4993683;28;20050;-77
2021/10/19 01:26:54;;;;;;;23.85;18.80;;;12.00;99.90;;;;;;4993294;28;20137;-76
2021/10/19 01:29:21;;;;;;;25.75;19.45;;;12.10;99.90;;;;;;5001117;28;20115;-76
2021/10/19 01:31:50;;;;;;;22.52;18.92;;;12.10;99.90;;;;;;4993834;28;20101;-77
2021/10/19 01:34:17;;;;;;;24.02;19.42;;;12.10;99.90;;;;;;4998126;28;20122;-78
2021/10/19 01:36:44;;;;;;;25.50;19.92;;;12.10;99.90;;;;;;5000833;28;20050;-77
2021/10/19 01:39:14;;;;;;;25.73;19.10;;;12.10;99.90;;;;;;4993632;28;20133;-77
2021/10/19 01:41:42;;;;;;;26.75;19.17;;;12.10;99.90;;;;;;4992870;28;20056;-77
2021/10/19 01:44:10;;;;;;;25.10;19.48;;;12.10;99.90;;;;;;4993003;28;20058;-76
2021/10/19 01:46:37;;;;;;;24.45;19.27;;;12.10;99.90;;;;;;4993313;28;20129;-76
2021/10/19 01:49:03;;;;;;;26.63;18.95;;;12.10;99.90;;;;;;4996824;28;20082;-77
2021/10/19 01:51:30;;;;;;;26.58;19.08;;;12.10;99.90;;;;;;4996627;28;20047;-77
2021/10/19 01:53:57;;;;;;;26.92;20.65;;;12.10;99.90;;;;;;4996884;28;20125;-78
2021/10/19 01:56:26;;;;;;;27.20;20.23;;;12.10;99.90;;;;;;4996266;28;20053;-77
2021/10/19 01:58:53;;;;;;;23.80;19.77;;;12.10;99.90;;;;;;4996787;28;20526;-78
2021/10/19 02:01:20;;;;;;;26.48;20.45;;;12.00;99.90;;;;;;4997084;28;20050;-77
2021/10/19 02:03:47;;;;;;;27.40;20.95;;;12.10;99.90;;;;;;4996399;28;20050;-77
2021/10/19 02:06:14;;;;;;;27.35;21.48;;;12.00;99.90;;;;;;4996429;28;20138;-77
2021/10/19 02:08:41;;;;;;;27.65;21.02;;;11.90;99.90;;;;;;4996368;28;20076;-77
2021/10/19 02:11:07;;;;;;;30.95;22.13;;;11.90;99.90;;;;;;4995823;28;20132;-77
2021/10/19 02:13:36;;;;;;;29.48;21.38;;;11.90;99.90;;;;;;4995968;28;20056;-77
2021/10/19 02:16:03;;;;;;;30.38;22.10;;;11.80;99.90;;;;;;4996079;28;20050;-77
2021/10/19 02:18:30;;;;;;;33.63;22.85;;;11.80;99.90;;;;;;4995855;28;20061;-77
2021/10/19 02:20:56;;;;;;;31.48;23.80;;;11.80;99.90;;;;;;4995650;28;20089;-78
2021/10/19 02:23:23;;;;;;;32.85;24.33;;;11.80;99.90;;;;;;4995895;28;20512;-77
2021/10/19 02:25:50;;;;;;;34.42;23.77;;;11.80;99.90;;;;;;4995309;28;20365;-77
2021/10/19 02:28:17;;;;;;;32.78;23.98;;;11.80;99.90;;;;;;4995724;28;20061;-77
2021/10/19 02:30:45;;;;;;;31.90;24.70;;;11.80;99.90;;;;;;4995572;28;20056;-77
2021/10/19 02:33:12;;;;;;;34.67;24.42;;;11.80;99.90;;;;;;4995809;28;20142;-77
2021/10/19 02:35:39;;;;;;;35.25;25.98;;;11.70;99.90;;;;;;4995575;28;20054;-77
2021/10/19 02:38:06;;;;;;;34.38;25.63;;;11.80;99.90;;;;;;4995694;28;20066;-77
2021/10/19 02:40:33;;;;;;;37.13;26.38;;;11.80;99.90;;;;;;4996165;28;20482;-77
2021/10/19 02:43:00;;;;;;;36.50;26.67;;;11.70;99.90;;;;;;4996116;28;20460;-77
2021/10/19 02:45:26;;;;;;;34.92;26.65;;;11.70;99.90;;;;;;4995713;28;20430;-77
2021/10/19 02:47:55;;;;;;;34.90;25.48;;;11.70;99.90;;;;;;4995616;28;20388;-77
2021/10/19 02:50:21;;;;;;;41.97;26.60;;;11.70;99.90;;;;;;4996211;28;20486;-77
2021/10/19 02:52:48;;;;;;;37.30;26.33;;;11.60;99.90;;;;;;4996164;28;20177;-77
2021/10/19 02:55:16;;;;;;;37.03;27.45;;;11.60;99.90;;;;;;4995337;28;20050;-77
2021/10/19 02:57:44;;;;;;;40.55;28.45;;;11.50;99.90;;;;;;4997189;28;20133;-77
2021/10/19 03:00:12;;;;;;;37.63;27.92;;;11.50;99.90;;;;;;4997379;28;20089;-77
2021/10/19 03:02:39;;;;;;;39.85;28.30;;;11.50;99.90;;;;;;4997700;28;20137;-78
2021/10/19 03:05:08;;;;;;;41.47;27.73;;;11.50;99.90;;;;;;5002016;28;20129;-78
2021/10/19 03:07:35;;;;;;;37.40;28.08;;;11.50;99.90;;;;;;5005100;28;20073;-78
2021/10/19 03:10:03;;;;;;;43.30;28.23;;;11.50;99.90;;;;;;5003805;28;20133;-79
2021/10/19 03:12:30;;;;;;;40.72;29.02;;;11.50;99.90;;;;;;4997641;28;20117;-78
2021/10/19 03:14:56;;;;;;;45.58;30.10;;;11.50;99.90;;;;;;5001373;28;20080;-78
2021/10/19 03:17:23;;;;;;;45.95;29.40;;;11.40;99.90;;;;;;4999800;28;20140;-78
2021/10/19 03:19:50;;;;;;;40.92;28.17;;;11.40;99.90;;;;;;5000974;28;20046;-78
2021/10/19 03:22:18;;;;;;;43.42;28.73;;;11.50;99.90;;;;;;4997921;28;20129;-78
2021/10/19 03:24:45;;;;;;;41.28;29.00;;;11.50;99.90;;;;;;4999827;28;20054;-77
2021/10/19 03:27:12;;;;;;;46.03;29.67;;;11.50;99.90;;;;;;4995554;28;20459;-77
2021/10/19 03:29:40;;;;;;;46.90;30.17;;;11.50;99.90;;;;;;4995198;28;20141;-77
2021/10/19 03:32:07;;;;;;;46.97;31.48;;;11.50;99.90;;;;;;4994704;28;20367;-77
2021/10/19 03:34:34;;;;;;;45.75;31.58;;;11.50;99.90;;;;;;4994376;28;20046;-77
2021/10/19 03:37:01;;;;;;;47.55;31.77;;;11.50;99.90;;;;;;4994114;28;20129;-78
2021/10/19 03:39:30;;;;;;;49.53;32.13;;;11.60;99.90;;;;;;4996336;28;20086;-78
2021/10/19 03:41:56;;;;;;;54.42;33.28;;;11.60;99.90;;;;;;4996923;28;20042;-78
2021/10/19 03:44:23;;;;;;;49.95;34.03;;;11.60;99.90;;;;;;4996884;28;20082;-77
2021/10/19 03:46:50;;;;;;;53.08;36.05;;;11.60;99.90;;;;;;4995823;28;20133;-78
2021/10/19 03:49:17;;;;;;;53.72;34.70;;;11.60;99.90;;;;;;4995005;28;20141;-78
2021/10/19 03:51:44;;;;;;;60.08;35.40;;;11.60;99.90;;;;;;4992409;28;20118;-77
2021/10/19 03:54:11;;;;;;;55.72;35.00;;;11.60;99.90;;;;;;4995121;28;20054;-78
2021/10/19 03:56:40;;;;;;;56.95;36.70;;;11.50;99.90;;;;;;4995178;28;20473;-78
2021/10/19 03:59:06;;;;;;;59.20;37.47;;;11.60;99.90;;;;;;4995494;28;20046;-78
2021/10/19 04:01:33;;;;;;;62.97;38.20;;;11.60;99.90;;;;;;4994291;28;20074;-78
2021/10/19 04:04:00;;;;;;;61.42;39.30;;;11.50;99.90;;;;;;4995678;28;20133;-78
2021/10/19 04:06:28;;;;;;;65.90;40.90;;;11.60;99.90;;;;;;4995534;28;20054;-78
2021/10/19 04:08:55;;;;;;;69.63;41.25;;;11.50;99.90;;;;;;4994865;28;20054;-78
2021/10/19 04:11:22;;;;;;;65.28;41.83;;;11.50;99.90;;;;;;4993623;28;20048;-78
2021/10/19 04:13:51;;;;;;;72.10;43.60;;;11.50;99.90;;;;;;4995865;28;20144;-78
2021/10/19 04:16:18;;;;;;;72.57;42.95;;;11.50;99.90;;;;;;4995949;28;20078;-78
2021/10/19 04:18:45;;;;;;;70.57;43.20;;;11.50;99.90;;;;;;4959139;28;20578;-78
2021/10/19 04:21:12;;;;;;;74.72;44.45;;;11.50;99.90;;;;;;4957261;28;20059;-78
2021/10/19 04:23:39;;;;;;;70.35;43.15;;;11.50;99.90;;;;;;4956760;28;20153;-78
2021/10/19 04:26:06;;;;;;;75.57;45.40;;;11.50;99.90;;;;;;4956286;28;20220;-78
2021/10/19 04:28:33;;;;;;;82.93;47.50;;;11.50;99.90;;;;;;4958457;28;20138;-77
2021/10/19 04:33:29;;;;;;;80.43;45.90;;;11.50;99.90;;;;;;4971785;28;20425;-77
2021/10/19 04:35:56;;;;;;;79.35;45.05;;;11.50;99.90;;;;;;4953851;28;20581;-77
2021/10/19 04:38:23;;;;;;;80.47;46.33;;;11.50;99.90;;;;;;4954116;28;20051;-79
2021/10/19 04:40:50;;;;;;;76.70;44.78;;;11.60;99.90;;;;;;4954019;28;20137;-78
2021/10/19 04:43:17;;;;;;;81.20;45.05;;;11.70;99.90;;;;;;4954022;29;20464;-78
2021/10/19 04:45:44;;;;;;;81.30;45.45;;;11.70;99.90;;;;;;4953689;28;20138;-78
2021/10/19 04:48:11;;;;;;;79.88;44.50;;;11.70;99.90;;;;;;4954415;28;20091;-78
2021/10/19 04:50:39;;;;;;;74.18;43.25;;;11.80;99.90;;;;;;4953842;28;20501;-78
2021/10/19 04:53:06;;;;;;;80.15;43.65;;;11.80;99.90;;;;;;4954014;28;20132;-77
2021/10/19 04:55:33;;;;;;;76.85;43.72;;;11.90;99.90;;;;;;4953787;28;20046;-77
2021/10/19 04:57:59;;;;;;;75.70;43.05;;;11.90;99.90;;;;;;4954353;28;20177;-77
2021/10/19 05:00:26;;;;;;;75.53;43.97;;;11.90;99.90;;;;;;4953974;28;20077;-79
2021/10/19 05:02:55;;;;;;;77.13;43.97;;;11.80;99.90;;;;;;4954141;28;20086;-78
2021/10/19 05:05:22;;;;;;;72.45;41.88;;;11.90;99.90;;;;;;4954079;28;20055;-77
2021/10/19 05:07:50;;;;;;;77.22;42.78;;;11.90;99.90;;;;;;4953959;28;20089;-77
2021/10/19 05:10:18;;;;;;;71.97;39.92;;;11.90;99.90;;;;;;4954307;28;20051;-78
2021/10/19 05:12:45;;;;;;;70.00;40.35;;;11.90;99.90;;;;;;4954572;28;20138;-78
2021/10/19 05:15:12;;;;;;;69.18;41.97;;;11.90;99.90;;;;;;4954535;28;20142;-78
2021/10/19 05:17:39;;;;;;;70.43;40.58;;;11.90;99.90;;;;;;4954081;28;20051;-78
2021/10/19 05:20:07;;;;;;;77.45;41.30;;;12.00;99.90;;;;;;4953989;28;20058;-78
2021/10/19 05:22:35;;;;;;;68.10;41.67;;;12.00;99.90;;;;;;4952956;28;20520;-77
2021/10/19 05:25:03;;;;;;;61.10;38.28;;;12.00;99.90;;;;;;4953735;28;20055;-77
2021/10/19 05:27:30;;;;;;;66.10;38.75;;;12.10;99.90;;;;;;4953663;28;20139;-77
2021/10/19 05:29:57;;;;;;;69.47;39.85;;;12.10;99.90;;;;;;4953840;28;20432;-77
2021/10/19 05:32:24;;;;;;;62.47;37.40;;;12.10;99.90;;;;;;4953693;28;20127;-76
2021/10/19 05:34:51;;;;;;;63.45;38.33;;;12.10;99.90;;;;;;4953369;28;20138;-74
2021/10/19 05:37:18;;;;;;;68.93;38.90;;;12.10;99.90;;;;;;4953440;28;20051;-76
2021/10/19 05:39:44;;;;;;;66.18;38.13;;;12.10;99.90;;;;;;4953403;28;20416;-77
2021/10/19 05:42:13;;;;;;;65.97;38.08;;;12.10;99.90;;;;;;4953877;28;20043;-77
2021/10/19 05:44:40;;;;;;;63.42;37.00;;;12.20;99.90;;;;;;4954003;28;20545;-77
2021/10/19 05:47:07;;;;;;;66.65;37.70;;;12.20;99.90;;;;;;4954404;28;20155;-77
2021/10/19 05:49:34;;;;;;;65.15;38.42;;;12.20;99.90;;;;;;4953154;28;20047;-77
2021/10/19 05:52:01;;;;;;;60.47;36.90;;;12.20;99.90;;;;;;4953467;28;20047;-78
2021/10/19 05:54:28;;;;;;;62.35;36.78;;;12.20;99.90;;;;;;4953078;28;20054;-77
2021/10/19 05:56:56;;;;;;;60.80;37.40;;;12.20;99.90;;;;;;4952935;28;20059;-75
2021/10/19 05:59:25;;;;;;;63.85;37.45;;;12.20;99.90;;;;;;4953086;28;20150;-76
2021/10/19 06:01:52;;;;;;;61.10;36.65;;;12.20;99.90;;;;;;4953129;29;20058;-76
2021/10/19 06:04:18;;;;;;;63.72;36.58;;;12.30;99.90;;;;;;4953341;28;20588;-78
2021/10/19 06:06:53;;;;;;;61.30;37.95;;;12.30;99.90;;;;;;4952815;28;20051;-75
2021/10/19 06:09:20;;;;;;;60.20;36.42;;;12.20;99.90;;;;;;4953085;28;20059;-76
2021/10/19 06:11:47;;;;;;;68.30;37.92;;;12.20;99.90;;;;;;4953288;28;20130;-77
2021/10/19 06:14:15;;;;;;;58.42;36.67;;;12.30;99.90;;;;;;4952990;28;20055;-76
2021/10/19 06:16:43;;;;;;;63.45;37.33;;;12.30;99.90;;;;;;4952545;28;20134;-76
2021/10/19 06:19:12;;;;;;;66.40;37.13;;;12.30;99.90;;;;;;4952905;28;20477;-76
2021/10/19 06:21:39;;;;;;;59.38;36.08;;;12.30;99.90;;;;;;4952824;28;20058;-77
2021/10/19 06:24:06;;;;;;;56.03;35.42;;;12.40;99.90;;;;;;4953217;28;20051;-77
2021/10/19 06:26:35;;;;;;;59.17;34.97;;;12.40;99.90;;;;;;4953161;28;20055;-77
2021/10/19 06:29:03;;;;;;;54.42;33.65;;;12.40;99.90;;;;;;4952999;28;20055;-77
2021/10/19 06:31:30;;;;;;;56.45;34.58;;;12.50;99.90;;;;;;4952698;28;20126;-78
2021/10/19 06:33:58;;;;;;;53.75;34.20;;;12.50;99.90;;;;;;4955482;28;20079;-77
2021/10/19 06:36:25;;;;;;;52.92;33.78;;;12.50;99.90;;;;;;4956467;28;20133;-77
2021/10/19 06:38:52;;;;;;;50.72;32.40;;;12.50;99.90;;;;;;4956264;28;20134;-76
2021/10/19 06:41:19;;;;;;;53.22;31.85;;;12.60;99.90;;;;;;4956344;28;20070;-78
2021/10/19 06:43:46;;;;;;;51.30;31.80;;;12.60;99.90;;;;;;4956351;28;20493;-77
2021/10/19 06:46:13;;;;;;;48.92;31.05;;;12.60;99.90;;;;;;4955913;28;20051;-78
2021/10/19 06:48:40;;;;;;;46.47;30.65;;;12.70;99.90;;;;;;4955928;28;20071;-76
2021/10/19 06:51:08;;;;;;;46.53;30.42;;;12.70;99.90;;;;;;4956153;28;20086;-78
2021/10/19 06:53:35;;;;;;;48.15;29.75;;;12.70;99.90;;;;;;4956070;28;20087;-77
2021/10/19 06:56:03;;;;;;;47.22;30.65;;;12.80;99.90;;;;;;4955726;28;20141;-77
2021/10/19 06:58:30;;;;;;;45.40;28.48;;;12.80;99.90;;;;;;4955456;28;20049;-77
2021/10/19 07:00:59;;;;;;;45.65;30.38;;;12.80;99.90;;;;;;4954896;28;20492;-77
2021/10/19 07:03:26;;;;;;;41.80;27.95;;;12.80;99.90;;;;;;4954952;28;20727;-78
2021/10/19 07:05:53;;;;;;;45.63;29.23;;;12.90;99.90;;;;;;4954709;28;20047;-77
2021/10/19 07:08:22;;;;;;;47.92;32.10;;;12.80;99.90;;;;;;4955175;28;20055;-76
2021/10/19 07:10:49;;;;;;;47.90;30.38;;;12.80;99.90;;;;;;4955021;28;20054;-76
2021/10/19 07:13:23;;;;;;;47.25;30.92;;;12.80;99.90;;;;;;4954549;28;20524;-77
2021/10/19 07:15:50;;;;;;;48.08;31.70;;;12.80;99.90;;;;;;4954625;28;20054;-76
2021/10/19 07:18:17;;;;;;;52.00;32.97;;;12.70;99.90;;;;;;4954530;28;20556;-77
2021/10/19 07:20:44;;;;;;;55.55;32.35;;;12.70;99.90;;;;;;4954896;28;20055;-76
2021/10/19 07:23:10;;;;;;;49.30;31.92;;;12.70;99.90;;;;;;4955486;28;20054;-78
2021/10/19 07:25:39;;;;;;;52.63;32.30;;;12.70;99.90;;;;;;4955624;28;20137;-77
2021/10/19 07:28:06;;;;;;;45.55;31.48;;;12.70;99.90;;;;;;4954919;28;20051;-76
2021/10/19 07:30:33;;;;;;;44.08;30.98;;;12.70;99.90;;;;;;4954621;28;20082;-76
2021/10/19 07:33:00;;;;;;;49.35;31.33;;;12.70;99.90;;;;;;4954715;28;20146;-76
2021/10/19 07:35:27;;;;;;;44.00;29.50;;;12.80;99.90;;;;;;4954302;28;20134;-76
2021/10/19 07:37:54;;;;;;;45.22;29.10;;;12.90;99.90;;;;;;4955237;28;20051;-76
2021/10/19 07:40:22;;;;;;;39.38;26.88;;;12.90;99.90;;;;;;4955215;28;20135;-76
2021/10/19 07:42:50;;;;;;;42.47;27.40;;;12.90;99.90;;;;;;4959058;28;20381;-77
2021/10/19 07:45:18;;;;;;;39.83;27.80;;;12.90;99.90;;;;;;4963459;28;20142;-75
2021/10/19 07:47:47;;;;;;;39.70;27.60;;;12.90;99.90;;;;;;4966989;28;20066;-75
2021/10/19 07:50:18;;;;;;;38.25;26.33;;;12.90;99.90;;;;;;4964073;28;20090;-75
2021/10/19 07:52:46;;;;;;;39.75;26.48;;;13.00;99.90;;;;;;4960611;28;20095;-77
2021/10/19 07:55:13;;;;;;;38.38;26.90;;;13.00;99.90;;;;;;4959265;28;20422;-76
2021/10/19 07:57:44;;;;;;;35.83;25.20;;;13.00;99.90;;;;;;4961278;28;20062;-77
2021/10/19 08:00:15;;;;;;;32.55;24.88;;;13.10;99.90;;;;;;4956492;28;20489;-78
2021/10/19 08:02:42;;;;;;;37.90;24.52;;;13.00;99.90;;;;;;4970115;28;20403;-77
2021/10/19 08:05:13;;;;;;;37.20;25.73;;;13.10;99.90;;;;;;4992849;28;20076;-77
2021/10/19 08:07:40;;;;;;;32.63;24.20;;;13.10;99.90;;;;;;4980876;28;20054;-77
2021/10/19 08:10:08;;;;;;;34.08;24.63;;;13.00;99.90;;;;;;4969805;28;20595;-76
2021/10/19 08:12:35;;;;;;;33.55;25.63;;;13.00;99.90;;;;;;4960937;28;20422;-77
2021/10/19 08:15:03;;;;;;;34.53;24.48;;;13.00;99.90;;;;;;4961935;28;20047;-76
2021/10/19 08:17:31;;;;;;;32.38;24.05;;;13.10;99.90;;;;;;4964249;28;20133;-77
2021/10/19 08:19:59;;;;;;;32.70;24.77;;;13.10;99.90;;;;;;4963266;28;20075;-74
2021/10/19 08:22:28;;;;;;;31.23;24.45;;;13.10;99.90;;;;;;4968186;28;20512;-75
2021/10/19 08:24:55;;;;;;;33.63;23.88;;;13.10;99.90;;;;;;4972730;28;20488;-76
2021/10/19 08:27:22;;;;;;;37.33;24.67;;;13.20;99.90;;;;;;4973265;28;20061;-75
2021/10/19 08:29:49;;;;;;;33.60;25.25;;;13.10;99.90;;;;;;4973093;28;20129;-76
2021/10/19 08:32:15;;;;;;;36.83;24.98;;;13.10;99.90;;;;;;4973082;28;20057;-75
2021/10/19 08:34:44;;;;;;;34.35;23.90;;;13.20;99.90;;;;;;4964356;28;20138;-75
2021/10/19 08:37:11;;;;;;;31.95;24.08;;;13.20;99.90;;;;;;4953369;28;20051;-75
2021/10/19 08:39:38;;;;;;;29.30;22.92;;;13.30;99.90;;;;;;4953651;28;20143;-75
2021/10/19 08:42:05;;;;;;;30.25;23.60;;;13.30;99.90;;;;;;4953496;28;20055;-75
2021/10/19 08:44:32;;;;;;;28.42;23.00;;;13.30;99.90;;;;;;4953288;28;20130;-75
2021/10/19 08:47:00;;;;;;;31.77;23.80;;;13.30;99.90;;;;;;4955613;28;20108;-75
2021/10/19 08:49:27;;;;;;;29.80;22.90;;;13.30;99.90;;;;;;4970736;28;20134;-75
2021/10/19 08:51:55;;;;;;;31.58;23.40;;;13.30;99.90;;;;;;4966890;28;20058;-75
2021/10/19 08:54:23;;;;;;;32.08;23.00;;;13.40;99.90;;;;;;4972760;28;20055;-75
2021/10/19 08:56:50;;;;;;;30.13;23.08;;;13.50;99.90;;;;;;4964121;28;20058;-76
2021/10/19 08:59:23;;;;;;;28.67;22.25;;;13.60;99.90;;;;;;4967855;28;20050;-76
2021/10/19 09:01:50;;;;;;;;;;;13.70;99.90;;;;;;4974757;28;20146;-75
2021/10/19 09:04:17;;;;;;;30.80;23.48;;;13.70;99.90;;;;;;4973481;28;19969;-74
2021/10/19 09:06:45;;;;;;;31.73;24.33;;;13.80;99.90;;;;;;4973621;28;20114;-74
2021/10/19 09:09:16;;;;;;;28.70;23.85;;;13.80;99.90;;;;;;4959985;28;20134;-75
2021/10/19 09:11:44;;;;;;;33.00;25.33;;;13.90;99.90;;;;;;4953989;28;20086;-76
2021/10/19 09:14:12;;;;;;;28.60;24.70;;;13.90;99.90;;;;;;4970484;28;20125;-75
2021/10/19 09:16:41;;;;;;;29.17;24.48;;;14.00;99.90;;;;;;4973073;28;20055;-75
2021/10/19 09:19:08;;;;;;;28.00;23.88;;;14.20;99.90;;;;;;4963725;28;20521;-76
2021/10/19 09:21:35;;;;;;;26.83;23.73;;;14.20;99.90;;;;;;4957953;28;20062;-76
2021/10/19 09:24:17;;;;;;;27.45;23.85;;;14.40;99.90;;;;;;4961411;28;20438;-75
2021/10/19 09:26:54;;;;;;;28.10;23.90;;;14.40;99.90;;;;;;4953533;28;20439;-75
2021/10/19 09:29:21;;;;;;;27.38;24.40;;;14.50;99.90;;;;;;4953207;28;20078;-74
2021/10/19 09:31:51;;;;;;;25.90;23.10;;;14.50;99.90;;;;;;4952911;28;20157;-75
2021/10/19 09:34:18;;;;;;;26.40;23.52;;;14.60;99.90;;;;;;4952665;28;20054;-76
2021/10/19 09:36:45;;;;;;;25.83;22.35;;;14.70;99.90;;;;;;4952313;28;20051;-74
2021/10/19 09:39:12;;;;;;;26.27;23.50;;;14.60;99.90;;;;;;4952408;28;20094;-74
2021/10/19 09:41:44;;;;;;;29.17;22.58;;;14.60;99.90;;;;;;4952785;28;20055;-75
2021/10/19 09:44:13;;;;;;;29.10;24.17;;;14.60;99.90;;;;;;4952837;28;20134;-74
2021/10/19 09:46:41;;;;;;;25.80;22.90;;;14.50;99.90;;;;;;4952356;28;20551;-75
2021/10/19 09:49:09;;;;;;;28.05;22.75;;;14.50;99.90;;;;;;4952735;28;20406;-75
2021/10/19 09:51:38;;;;;;;29.17;23.13;;;14.60;99.90;;;;;;4952318;28;20138;-75
2021/10/19 09:54:08;;;;;;;27.80;24.90;;;14.60;99.90;;;;;;4955143;28;20074;-75
2021/10/19 09:56:37;;;;;;;27.77;24.77;;;14.60;99.90;;;;;;4958882;28;20058;-73
2021/10/19 09:59:06;;;;;;;27.95;24.98;;;14.70;99.90;;;;;;4959852;28;20055;-76
2021/10/19 10:01:34;;;;;;;30.50;27.13;;;14.70;99.90;;;;;;4969165;28;20123;-74
2021/10/19 10:04:01;;;;;;;28.92;25.75;;;14.70;99.90;;;;;;4978515;28;20425;-74
2021/10/19 10:06:29;;;;;;;30.35;26.70;;;14.70;99.90;;;;;;4971001;28;20090;-75
2021/10/19 10:08:57;;;;;;;29.70;26.50;;;14.80;99.90;;;;;;4956608;28;20138;-75
2021/10/19 10:11:24;;;;;;;32.25;28.48;;;14.80;99.90;;;;;;4964096;28;20134;-75
2021/10/19 10:13:59;;;;;;;32.88;26.20;;;14.90;99.90;;;;;;4963021;28;20046;-74
2021/10/19 10:16:27;;;;;;;29.92;25.67;;;14.90;99.90;;;;;;4962804;28;20059;-74
2021/10/19 10:18:55;;;;;;;28.25;25.15;;;14.90;99.90;;;;;;4965089;28;20528;-74
2021/10/19 10:21:24;;;;;;;27.55;22.95;;;14.90;99.90;;;;;;4963657;28;20047;-75
2021/10/19 10:24:00;;;;;;;27.00;22.10;;;14.90;99.90;;;;;;4968829;28;20081;-76
2021/10/19 10:26:29;;;;;;;24.55;20.42;;;14.90;99.90;;;;;;4971247;28;20077;-76
2021/10/19 10:29:07;;;;;;;24.63;19.75;;;14.90;99.90;;;;;;4963111;28;20047;-74
2021/10/19 10:31:48;;;;;;;25.63;19.25;;;14.90;99.90;;;;;;4960335;28;20501;-77
2021/10/19 10:34:29;;;;;;;20.35;17.80;;;14.80;99.90;;;;;;4961041;28;20043;-78
2021/10/19 10:37:06;;;;;;;22.65;17.50;;;14.80;99.90;;;;;;4960279;28;20083;-77
2021/10/19 10:39:35;;;;;;;22.25;17.50;;;14.90;99.90;;;;;;4965536;28;20063;-75
2021/10/19 10:42:13;;;;;;;22.77;17.58;;;14.90;99.90;;;;;;4960180;28;20066;-77
2021/10/19 10:44:42;;;;;;;23.05;18.10;;;14.90;99.90;;;;;;4957617;28;20501;-76
2021/10/19 10:47:11;;;;;;;20.42;16.55;;;14.90;99.90;;;;;;5008830;23;20106;-75
2021/10/19 10:49:38;;;;;;;23.00;17.13;;;14.90;99.90;;;;;;4977745;28;20503;-79
2021/10/19 10:52:15;;;;;;;18.88;16.60;;;14.90;99.90;;;;;;4979321;28;20054;-80
2021/10/19 10:54:52;;;;;;;21.52;16.58;;;14.90;99.90;;;;;;4980240;28;20051;-80
2021/10/19 10:57:19;;;;;;;23.60;18.50;;;15.00;99.90;;;;;;4980161;28;20142;-80
2021/10/19 10:59:53;;;;;;;19.88;16.65;;;15.10;99.90;;;;;;4980018;28;20114;-77
2021/10/19 11:02:24;;;;;;;22.52;17.10;;;15.10;99.90;;;;;;4979079;28;20138;-81
2021/10/19 11:04:54;;;;;;;20.60;15.10;;;15.20;99.90;;;;;;4979663;28;20076;-80
2021/10/19 11:07:30;;;;;;;16.45;14.70;;;15.30;99.90;;;;;;4980030;28;20082;-79
2021/10/19 11:09:57;;;;;;;15.02;13.43;;;15.40;99.90;;;;;;4980005;28;20476;-81
2021/10/19 11:12:24;;;;;;;16.40;14.23;;;15.50;99.90;;;;;;4977687;28;20130;-81
2021/10/19 11:14:51;;;;;;;18.48;13.27;;;15.50;99.90;;;;;;4978641;28;20078;-76
2021/10/19 11:17:19;;;;;;;15.60;13.57;;;15.50;99.90;;;;;;4976986;28;20555;-79
2021/10/19 11:19:47;;;;;;;21.75;14.48;;;15.50;99.90;;;;;;4975838;28;20477;-80
2021/10/19 11:22:14;;;;;;;15.40;13.77;;;15.50;99.90;;;;;;4976712;28;20527;-79
2021/10/19 11:24:41;;;;;;;17.55;14.13;;;15.40;99.90;;;;;;4976960;28;20175;-79
2021/10/19 11:27:08;;;;;;;19.75;13.48;;;15.50;99.90;;;;;;4986653;28;20051;-82
2021/10/19 11:29:38;;;;;;;14.48;11.95;;;15.60;99.90;;;;;;4978436;28;20532;-78
2021/10/19 11:32:06;;;;;;;17.08;12.32;;;15.60;99.90;;;;;;4977820;28;20079;-80
2021/10/19 11:34:33;;;;;;;14.93;13.13;;;15.70;99.90;;;;;;4978078;28;20137;-79
2021/10/19 11:37:01;;;;;;;16.80;12.95;;;15.60;99.90;;;;;;4976584;28;20123;-79
2021/10/19 11:39:29;;;;;;;15.25;12.35;;;15.70;99.90;;;;;;4978124;28;20054;-80
2021/10/19 11:42:00;;;;;;;14.32;12.57;;;15.80;99.90;;;;;;4981810;28;20054;-80
2021/10/19 11:44:30;;;;;;;13.13;11.75;;;15.90;99.90;;;;;;4977376;28;20485;-78
2021/10/19 11:47:01;;;;;;;14.00;11.32;;;16.10;99.90;;;;;;4976251;28;20047;-79
2021/10/19 11:49:30;;;;;;;17.73;11.65;;;16.20;99.90;;;;;;4977243;28;20113;-81
2021/10/19 11:51:58;;;;;;;13.95;11.25;;;16.30;99.90;;;;;;4976725;28;20578;-79
2021/10/19 11:54:26;;;;;;;12.23;10.93;;;16.40;99.90;;;;;;4977218;28;20129;-79
2021/10/19 11:56:55;;;;;;;13.20;11.25;;;16.40;99.90;;;;;;4978048;28;20250;-79
2021/10/19 11:59:22;;;;;;;12.30;11.00;;;16.50;99.90;;;;;;4979385;28;20058;-78
2021/10/19 12:01:53;;;;;;;14.07;11.15;;;16.50;99.90;;;;;;4987128;28;20047;-80
2021/10/19 12:04:25;;;;;;;14.15;10.73;;;16.50;99.90;;;;;;4987568;28;20047;-78
2021/10/19 12:06:52;;;;;;;13.20;10.57;;;16.50;99.90;;;;;;4986131;28;20105;-79
2021/10/19 12:09:21;;;;;;;12.75;11.40;;;16.60;99.90;;;;;;4978730;28;20356;-81
2021/10/19 12:11:53;;;;;;;11.63;10.18;;;16.50;99.90;;;;;;4984962;28;20051;-79
2021/10/19 12:14:28;;;;;;;12.48;10.80;;;16.60;99.90;;;;;;4977912;28;20094;-79
2021/10/19 12:16:56;;;;;;;13.07;9.75;;;16.70;99.90;;;;;;4977129;28;20058;-79
2021/10/19 12:19:23;;;;;;;12.50;9.95;;;16.70;99.90;;;;;;4977780;28;20097;-80
2021/10/19 12:21:51;;;;;;;14.65;10.60;;;16.80;99.90;;;;;;4976568;28;20054;-81
2021/10/19 12:24:18;;;;;;;13.43;9.65;;;16.90;99.90;;;;;;4977885;28;20528;-80
2021/10/19 12:26:45;;;;;;;12.43;9.45;;;17.00;99.90;;;;;;4977936;28;20129;-80
2021/10/19 12:29:14;;;;;;;11.75;9.75;;;17.10;99.90;;;;;;4980599;28;20098;-80
2021/10/19 12:31:46;;;;;;;11.55;9.60;;;17.20;99.90;;;;;;4979195;28;20083;-80
2021/10/19 12:34:13;;;;;;;13.27;10.45;;;17.20;99.90;;;;;;4976257;28;20051;-80